createdAt,value
2017-09-25T00:00:31.498Z,1016.22
2017-09-25T00:01:31.479Z,1016.26
2017-09-25T00:02:31.458Z,1016.23
2017-09-25T00:03:31.449Z,1016.22
2017-09-25T00:04:31.484Z,1016.25
2017-09-25T00:05:31.411Z,1016.22
2017-09-25T00:06:31.394Z,1016.19
2017-09-25T00:07:31.377Z,1016.17
2017-09-25T00:08:31.362Z,1016.17
2017-09-25T00:09:31.350Z,1016.17
2017-09-25T00:10:31.330Z,1016.16
2017-09-25T00:11:31.320Z,1016.16
2017-09-25T00:12:31.300Z,1016.16
2017-09-25T00:13:31.279Z,1016.13
2017-09-25T00:14:31.270Z,1016.12
2017-09-25T00:15:31.251Z,1016.16
2017-09-25T00:16:31.238Z,1016.16
2017-09-25T00:17:31.220Z,1016.14
2017-09-25T00:18:31.198Z,1016.13
2017-09-25T00:19:31.192Z,1016.14
2017-09-25T00:20:31.166Z,1016.14
2017-09-25T00:21:31.150Z,1016.14
2017-09-25T00:22:31.140Z,1016.15
2017-09-25T00:23:31.132Z,1016.12
2017-09-25T00:24:31.100Z,1016.13
2017-09-25T00:25:31.083Z,1016.14
2017-09-25T00:26:31.070Z,1016.16
2017-09-25T00:27:31.050Z,1016.19
2017-09-25T00:28:31.040Z,1016.14
2017-09-25T00:29:31.020Z,1016.15
2017-09-25T00:30:31.034Z,1016.14
2017-09-25T00:31:30.986Z,1016.15
2017-09-25T00:32:30.974Z,1016.1
2017-09-25T00:33:30.959Z,1016.09
2017-09-25T00:34:30.934Z,1016.1
2017-09-25T00:35:30.919Z,1016.04
2017-09-25T00:36:30.910Z,1016.05
2017-09-25T00:37:30.890Z,1016.03
2017-09-25T00:38:30.869Z,1016.03
2017-09-25T00:39:30.861Z,1016.02
2017-09-25T00:40:30.836Z,1015.99
2017-09-25T00:41:30.817Z,1015.96
2017-09-25T00:42:30.802Z,1015.97
2017-09-25T00:43:30.795Z,1015.96
2017-09-25T00:44:30.769Z,1015.93
2017-09-25T00:45:30.761Z,1015.92
2017-09-25T00:46:30.736Z,1015.91
2017-09-25T00:47:30.719Z,1015.88
2017-09-25T00:48:30.702Z,1015.88
2017-09-25T00:49:30.684Z,1015.86
2017-09-25T00:50:30.669Z,1015.85
2017-09-25T00:51:30.655Z,1015.84
2017-09-25T00:52:30.638Z,1015.84
2017-09-25T00:53:30.620Z,1015.85
2017-09-25T00:54:30.610Z,1015.84
2017-09-25T00:55:30.586Z,1015.82
2017-09-25T00:56:30.569Z,1015.83
2017-09-25T00:57:30.555Z,1015.81
2017-09-25T00:58:30.543Z,1015.82
2017-09-25T00:59:30.518Z,1015.85
2017-09-25T01:00:30.508Z,1015.88
2017-09-25T01:01:30.488Z,1015.86
2017-09-25T01:02:30.477Z,1015.86
2017-09-25T01:03:30.454Z,1015.85
2017-09-25T01:04:30.441Z,1015.84
2017-09-25T01:05:30.418Z,1015.85
2017-09-25T01:06:30.417Z,1015.8
2017-09-25T01:07:30.389Z,1015.86
2017-09-25T01:08:30.369Z,1015.83
2017-09-25T01:09:30.361Z,1015.78
2017-09-25T01:10:30.339Z,1015.8
2017-09-25T01:11:30.323Z,1015.82
2017-09-25T01:12:30.303Z,1015.79
2017-09-25T01:13:30.289Z,1015.77
2017-09-25T01:14:30.269Z,1015.8
2017-09-25T01:15:30.256Z,1015.82
2017-09-25T01:16:30.239Z,1015.79
2017-09-25T01:17:30.227Z,1015.82
2017-09-25T01:18:30.208Z,1015.8
2017-09-25T01:19:30.192Z,1015.8
2017-09-25T01:20:30.178Z,1015.75
2017-09-25T01:21:30.152Z,1015.76
2017-09-25T01:22:30.138Z,1015.77
2017-09-25T01:23:30.119Z,1015.75
2017-09-25T01:24:30.108Z,1015.74
2017-09-25T01:25:30.089Z,1015.74
2017-09-25T01:26:30.079Z,1015.73
2017-09-25T01:27:30.062Z,1015.71
2017-09-25T01:28:30.041Z,1015.71
2017-09-25T01:29:30.020Z,1015.68
2017-09-25T01:30:30.006Z,1015.68
2017-09-25T01:31:29.989Z,1015.68
2017-09-25T01:32:29.969Z,1015.67
2017-09-25T01:33:29.959Z,1015.65
2017-09-25T01:34:29.941Z,1015.65
2017-09-25T01:35:29.921Z,1015.68
2017-09-25T01:36:29.902Z,1015.7
2017-09-25T01:37:29.889Z,1015.65
2017-09-25T01:38:29.871Z,1015.68
2017-09-25T01:39:29.866Z,1015.65
2017-09-25T01:40:29.835Z,1015.66
2017-09-25T01:41:29.820Z,1015.62
2017-09-25T01:42:29.809Z,1015.63
2017-09-25T01:43:29.789Z,1015.6
2017-09-25T01:44:29.769Z,1015.63
2017-09-25T01:45:29.749Z,1015.62
2017-09-25T01:46:29.747Z,1015.61
2017-09-25T01:47:29.719Z,1015.61
2017-09-25T01:48:29.699Z,1015.61
2017-09-25T01:49:29.681Z,1015.57
2017-09-25T01:50:29.666Z,1015.6
2017-09-25T01:51:29.649Z,1015.57
2017-09-25T01:52:29.638Z,1015.58
2017-09-25T01:53:29.619Z,1015.55
2017-09-25T01:54:29.603Z,1015.55
2017-09-25T01:55:29.588Z,1015.55
2017-09-25T01:56:29.567Z,1015.54
2017-09-25T01:57:29.552Z,1015.53
2017-09-25T01:58:29.530Z,1015.53
2017-09-25T01:59:29.518Z,1015.53
2017-09-25T02:00:29.501Z,1015.48
2017-09-25T02:01:29.482Z,1015.46
2017-09-25T02:02:29.463Z,1015.48
2017-09-25T02:03:29.447Z,1015.44
2017-09-25T02:04:29.429Z,1015.43
2017-09-25T02:05:29.414Z,1015.48
2017-09-25T02:06:29.399Z,1015.52
2017-09-25T02:07:29.379Z,1015.49
2017-09-25T02:08:29.371Z,1015.53
2017-09-25T02:09:29.343Z,1015.51
2017-09-25T02:10:29.327Z,1015.54
2017-09-25T02:11:29.313Z,1015.54
2017-09-25T02:12:29.299Z,1015.53
2017-09-25T02:13:29.280Z,1015.5
2017-09-25T02:14:29.259Z,1015.49
2017-09-25T02:15:29.248Z,1015.46
2017-09-25T02:16:29.224Z,1015.48
2017-09-25T02:17:29.208Z,1015.52
2017-09-25T02:18:29.194Z,1015.48
2017-09-25T02:19:29.181Z,1015.48
2017-09-25T02:20:29.162Z,1015.51
2017-09-25T02:21:29.148Z,1015.54
2017-09-25T02:22:29.123Z,1015.56
2017-09-25T02:23:29.137Z,1015.55
2017-09-25T02:24:29.090Z,1015.56
2017-09-25T02:25:29.083Z,1015.58
2017-09-25T02:26:29.059Z,1015.56
2017-09-25T02:27:29.049Z,1015.57
2017-09-25T02:28:29.030Z,1015.57
2017-09-25T02:29:29.009Z,1015.54
2017-09-25T02:30:28.991Z,1015.57
2017-09-25T02:31:28.974Z,1015.56
2017-09-25T02:32:28.960Z,1015.56
2017-09-25T02:33:28.940Z,1015.54
2017-09-25T02:34:28.927Z,1015.55
2017-09-25T02:35:28.905Z,1015.5
2017-09-25T02:36:28.887Z,1015.55
2017-09-25T02:37:28.872Z,1015.53
2017-09-25T02:38:28.860Z,1015.53
2017-09-25T02:39:28.839Z,1015.49
2017-09-25T02:40:28.820Z,1015.49
2017-09-25T02:41:28.810Z,1015.51
2017-09-25T02:42:28.789Z,1015.48
2017-09-25T02:43:28.769Z,1015.5
2017-09-25T02:44:28.759Z,1015.5
2017-09-25T02:45:28.736Z,1015.45
2017-09-25T02:46:28.723Z,1015.46
2017-09-25T02:47:28.710Z,1015.44
2017-09-25T02:48:28.685Z,1015.43
2017-09-25T02:49:28.676Z,1015.44
2017-09-25T02:50:28.651Z,1015.41
2017-09-25T02:51:28.634Z,1015.43
2017-09-25T02:52:28.620Z,1015.46
2017-09-25T02:53:28.600Z,1015.43
2017-09-25T02:54:28.589Z,1015.42
2017-09-25T02:55:28.571Z,1015.46
2017-09-25T02:56:28.552Z,1015.45
2017-09-25T02:57:28.529Z,1015.44
2017-09-25T02:58:28.516Z,1015.44
2017-09-25T02:59:28.498Z,1015.45
2017-09-25T03:00:28.478Z,1015.46
2017-09-25T03:01:28.466Z,1015.45
2017-09-25T03:02:28.448Z,1015.47
2017-09-25T03:03:28.449Z,1015.43
2017-09-25T03:04:28.409Z,1015.4
2017-09-25T03:05:28.401Z,1015.43
2017-09-25T03:06:28.382Z,1015.39
2017-09-25T03:07:28.373Z,1015.42
2017-09-25T03:08:28.350Z,1015.37
2017-09-25T03:09:28.332Z,1015.38
2017-09-25T03:10:28.310Z,1015.38
2017-09-25T03:11:28.294Z,1015.37
2017-09-25T03:12:28.276Z,1015.34
2017-09-25T03:13:28.261Z,1015.35
2017-09-25T03:14:28.245Z,1015.36
2017-09-25T03:15:28.230Z,1015.36
2017-09-25T03:16:28.211Z,1015.34
2017-09-25T03:17:28.194Z,1015.36
2017-09-25T03:18:28.171Z,1015.31
2017-09-25T03:19:28.160Z,1015.33
2017-09-25T03:20:28.142Z,1015.33
2017-09-25T03:21:28.130Z,1015.34
2017-09-25T03:22:28.355Z,1015.33
2017-09-25T03:23:28.099Z,1015.34
2017-09-25T03:24:28.069Z,1015.32
2017-09-25T03:25:28.055Z,1015.28
2017-09-25T03:26:28.039Z,1015.27
2017-09-25T03:27:28.171Z,1015.28
2017-09-25T03:28:28.002Z,1015.31
2017-09-25T03:29:27.992Z,1015.26
2017-09-25T03:30:27.971Z,1015.32
2017-09-25T03:31:28.053Z,1015.28
2017-09-25T03:32:27.940Z,1015.29
2017-09-25T03:33:28.022Z,1015.31
2017-09-25T03:34:27.897Z,1015.29
2017-09-25T03:35:27.890Z,1015.31
2017-09-25T03:36:27.863Z,1015.35
2017-09-25T03:37:27.902Z,1015.34
2017-09-25T03:38:27.830Z,1015.32
2017-09-25T03:39:27.819Z,1015.33
2017-09-25T03:40:27.796Z,1015.33
2017-09-25T03:41:27.829Z,1015.31
2017-09-25T03:42:27.772Z,1015.34
2017-09-25T03:43:27.749Z,1015.34
2017-09-25T03:44:27.732Z,1015.35
2017-09-25T03:45:27.727Z,1015.32
2017-09-25T03:46:27.698Z,1015.31
2017-09-25T03:47:27.679Z,1015.32
2017-09-25T03:48:27.660Z,1015.31
2017-09-25T03:49:27.647Z,1015.28
2017-09-25T03:50:27.631Z,1015.28
2017-09-25T03:51:27.607Z,1015.27
2017-09-25T03:52:27.601Z,1015.27
2017-09-25T03:53:27.580Z,1015.28
2017-09-25T03:54:27.567Z,1015.28
2017-09-25T03:55:27.540Z,1015.28
2017-09-25T03:56:27.530Z,1015.3
2017-09-25T03:57:27.510Z,1015.3
2017-09-25T03:58:27.491Z,1015.33
2017-09-25T03:59:27.474Z,1015.3
2017-09-25T04:00:27.458Z,1015.31
2017-09-25T04:01:27.451Z,1015.29
2017-09-25T04:02:27.422Z,1015.29
2017-09-25T04:03:27.407Z,1015.26
2017-09-25T04:04:27.391Z,1015.26
2017-09-25T04:05:27.370Z,1015.25
2017-09-25T04:06:27.381Z,1015.29
2017-09-25T04:07:27.340Z,1015.26
2017-09-25T04:08:27.320Z,1015.24
2017-09-25T04:09:27.301Z,1015.25
2017-09-25T04:10:27.290Z,1015.24
2017-09-25T04:11:27.273Z,1015.28
2017-09-25T04:12:27.250Z,1015.23
2017-09-25T04:13:27.237Z,1015.21
2017-09-25T04:14:27.227Z,1015.24
2017-09-25T04:15:27.208Z,1015.24
2017-09-25T04:16:27.190Z,1015.23
2017-09-25T04:17:27.165Z,1015.23
2017-09-25T04:18:27.156Z,1015.22
2017-09-25T04:19:27.139Z,1015.23
2017-09-25T04:20:27.112Z,1015.19
2017-09-25T04:21:27.101Z,1015.21
2017-09-25T04:22:27.083Z,1015.2
2017-09-25T04:23:27.075Z,1015.23
2017-09-25T04:24:27.047Z,1015.22
2017-09-25T04:25:27.040Z,1015.19
2017-09-25T04:26:27.022Z,1015.16
2017-09-25T04:27:27.003Z,1015.22
2017-09-25T04:28:26.990Z,1015.17
2017-09-25T04:29:26.968Z,1015.18
2017-09-25T04:30:26.950Z,1015.17
2017-09-25T04:31:26.928Z,1015.18
2017-09-25T04:32:26.908Z,1015.2
2017-09-25T04:33:26.893Z,1015.2
2017-09-25T04:34:26.881Z,1015.22
2017-09-25T04:35:26.859Z,1015.22
2017-09-25T04:36:26.844Z,1015.21
2017-09-25T04:37:26.832Z,1015.21
2017-09-25T04:38:26.809Z,1015.18
2017-09-25T04:39:26.798Z,1015.23
2017-09-25T04:40:26.779Z,1015.2
2017-09-25T04:41:26.760Z,1015.19
2017-09-25T04:42:26.743Z,1015.21
2017-09-25T04:43:26.725Z,1015.24
2017-09-25T04:44:26.707Z,1015.24
2017-09-25T04:45:26.690Z,1015.22
2017-09-25T04:46:26.680Z,1015.27
2017-09-25T04:47:26.653Z,1015.28
2017-09-25T04:48:26.644Z,1015.32
2017-09-25T04:49:26.629Z,1015.3
2017-09-25T04:50:26.609Z,1015.3
2017-09-25T04:51:26.592Z,1015.29
2017-09-25T04:52:26.578Z,1015.31
2017-09-25T04:53:26.560Z,1015.3
2017-09-25T04:54:26.541Z,1015.3
2017-09-25T04:55:26.519Z,1015.29
2017-09-25T04:56:26.503Z,1015.28
2017-09-25T04:57:26.484Z,1015.31
2017-09-25T04:58:26.472Z,1015.3
2017-09-25T04:59:26.451Z,1015.32
2017-09-25T05:00:26.435Z,1015.32
2017-09-25T05:01:26.418Z,1015.34
2017-09-25T05:02:26.400Z,1015.3
2017-09-25T05:03:26.389Z,1015.34
2017-09-25T05:04:26.367Z,1015.36
2017-09-25T05:05:26.352Z,1015.33
2017-09-25T05:06:26.334Z,1015.36
2017-09-25T05:07:26.322Z,1015.36
2017-09-25T05:08:26.294Z,1015.36
2017-09-25T05:09:26.280Z,1015.35
2017-09-25T05:10:26.266Z,1015.44
2017-09-25T05:11:26.252Z,1015.42
2017-09-25T05:12:26.228Z,1015.39
2017-09-25T05:13:26.223Z,1015.34
2017-09-25T05:14:26.197Z,1015.38
2017-09-25T05:15:26.181Z,1015.4
2017-09-25T05:16:26.192Z,1015.42
2017-09-25T05:17:26.152Z,1015.39
2017-09-25T05:18:26.133Z,1015.39
2017-09-25T05:19:26.109Z,1015.41
2017-09-25T05:20:26.089Z,1015.4
2017-09-25T05:21:26.078Z,1015.4
2017-09-25T05:22:26.063Z,1015.41
2017-09-25T05:23:26.043Z,1015.42
2017-09-25T05:24:26.033Z,1015.44
2017-09-25T05:25:26.011Z,1015.43
2017-09-25T05:26:25.986Z,1015.43
2017-09-25T05:27:25.973Z,1015.45
2017-09-25T05:28:25.955Z,1015.48
2017-09-25T05:29:25.937Z,1015.45
2017-09-25T05:30:25.921Z,1015.47
2017-09-25T05:31:25.910Z,1015.5
2017-09-25T05:32:25.888Z,1015.49
2017-09-25T05:33:25.873Z,1015.5
2017-09-25T05:34:25.852Z,1015.47
2017-09-25T05:35:25.841Z,1015.51
2017-09-25T05:36:25.820Z,1015.5
2017-09-25T05:37:25.806Z,1015.51
2017-09-25T05:38:25.792Z,1015.53
2017-09-25T05:39:25.771Z,1015.52
2017-09-25T05:40:25.752Z,1015.53
2017-09-25T05:41:25.739Z,1015.54
2017-09-25T05:42:25.717Z,1015.56
2017-09-25T05:43:25.702Z,1015.54
2017-09-25T05:44:25.686Z,1015.55
2017-09-25T05:45:25.666Z,1015.54
2017-09-25T05:46:25.647Z,1015.53
2017-09-25T05:47:25.629Z,1015.54
2017-09-25T05:48:25.620Z,1015.54
2017-09-25T05:49:25.601Z,1015.52
2017-09-25T05:50:25.580Z,1015.53
2017-09-25T05:51:25.572Z,1015.52
2017-09-25T05:52:25.550Z,1015.57
2017-09-25T05:53:25.534Z,1015.54
2017-09-25T05:54:25.520Z,1015.56
2017-09-25T05:55:25.509Z,1015.57
2017-09-25T05:56:25.477Z,1015.55
2017-09-25T05:57:25.461Z,1015.53
2017-09-25T05:58:25.444Z,1015.54
2017-09-25T05:59:25.429Z,1015.53
2017-09-25T06:00:25.410Z,1015.55
2017-09-25T06:01:25.391Z,1015.53
2017-09-25T06:02:25.383Z,1015.51
2017-09-25T06:03:25.357Z,1015.54
2017-09-25T06:04:25.343Z,1015.56
2017-09-25T06:05:25.329Z,1015.57
2017-09-25T06:06:25.316Z,1015.55
2017-09-25T06:07:25.292Z,1015.62
2017-09-25T06:08:25.276Z,1015.59
2017-09-25T06:09:25.255Z,1015.58
2017-09-25T06:10:25.240Z,1015.55
2017-09-25T06:11:25.220Z,1015.55
2017-09-25T06:12:25.210Z,1015.55
2017-09-25T06:13:25.187Z,1015.56
2017-09-25T06:14:25.171Z,1015.54
2017-09-25T06:15:25.152Z,1015.55
2017-09-25T06:16:25.138Z,1015.57
2017-09-25T06:17:25.119Z,1015.57
2017-09-25T06:18:25.108Z,1015.59
2017-09-25T06:19:25.085Z,1015.55
2017-09-25T06:20:25.079Z,1015.59
2017-09-25T06:21:25.057Z,1015.55
2017-09-25T06:22:25.041Z,1015.54
2017-09-25T06:23:25.020Z,1015.58
2017-09-25T06:24:25.001Z,1015.54
2017-09-25T06:25:24.981Z,1015.5
2017-09-25T06:26:24.975Z,1015.52
2017-09-25T06:27:24.949Z,1015.52
2017-09-25T06:28:24.933Z,1015.49
2017-09-25T06:29:24.915Z,1015.51
2017-09-25T06:30:24.903Z,1015.49
2017-09-25T06:31:24.888Z,1015.49
2017-09-25T06:32:24.865Z,1015.47
2017-09-25T06:33:24.857Z,1015.5
2017-09-25T06:34:24.834Z,1015.48
2017-09-25T06:35:24.823Z,1015.51
2017-09-25T06:36:24.803Z,1015.51
2017-09-25T06:37:24.786Z,1015.48
2017-09-25T06:38:24.773Z,1015.51
2017-09-25T06:39:24.753Z,1015.49
2017-09-25T06:40:24.774Z,1015.52
2017-09-25T06:41:24.722Z,1015.48
2017-09-25T06:42:24.709Z,1015.5
2017-09-25T06:43:24.693Z,1015.47
2017-09-25T06:44:24.679Z,1015.47
2017-09-25T06:45:24.656Z,1015.47
2017-09-25T06:46:24.655Z,1015.51
2017-09-25T06:47:24.630Z,1015.52
2017-09-25T06:48:24.615Z,1015.56
2017-09-25T06:49:24.600Z,1015.53
2017-09-25T06:50:24.589Z,1015.55
2017-09-25T06:51:24.571Z,1015.57
2017-09-25T06:52:24.558Z,1015.53
2017-09-25T06:53:24.544Z,1015.54
2017-09-25T06:54:24.533Z,1015.56
2017-09-25T06:55:24.519Z,1015.57
2017-09-25T06:56:24.514Z,1015.56
2017-09-25T06:57:24.490Z,1015.6
2017-09-25T06:58:24.476Z,1015.57
2017-09-25T06:59:24.460Z,1015.61
2017-09-25T07:00:24.453Z,1015.62
2017-09-25T07:01:24.433Z,1015.61
2017-09-25T07:02:24.521Z,1015.64
2017-09-25T07:03:24.412Z,1015.58
2017-09-25T07:04:24.398Z,1015.63
2017-09-25T07:05:24.393Z,1015.65
2017-09-25T07:06:24.371Z,1015.65
2017-09-25T07:07:24.360Z,1015.69
2017-09-25T07:08:24.344Z,1015.69
2017-09-25T07:09:24.332Z,1015.72
2017-09-25T07:10:24.334Z,1015.71
2017-09-25T07:11:24.307Z,1015.68
2017-09-25T07:12:24.340Z,1015.67
2017-09-25T07:13:24.280Z,1015.65
2017-09-25T07:14:24.271Z,1015.68
2017-09-25T07:15:24.253Z,1015.68
2017-09-25T07:16:24.244Z,1015.63
2017-09-25T07:17:24.226Z,1015.62
2017-09-25T07:18:24.213Z,1015.6
2017-09-25T07:19:24.200Z,1015.65
2017-09-25T07:20:24.240Z,1015.64
2017-09-25T07:21:24.180Z,1015.63
2017-09-25T07:22:24.173Z,1015.65
2017-09-25T07:23:24.151Z,1015.6
2017-09-25T07:24:24.141Z,1015.61
2017-09-25T07:25:24.119Z,1015.62
2017-09-25T07:26:24.113Z,1015.63
2017-09-25T07:27:24.092Z,1015.62
2017-09-25T07:28:24.078Z,1015.61
2017-09-25T07:29:24.066Z,1015.58
2017-09-25T07:30:24.049Z,1015.62
2017-09-25T07:31:24.040Z,1015.59
2017-09-25T07:32:24.030Z,1015.59
2017-09-25T07:33:24.012Z,1015.6
2017-09-25T07:34:23.991Z,1015.56
2017-09-25T07:35:23.978Z,1015.59
2017-09-25T07:36:23.965Z,1015.61
2017-09-25T07:37:23.953Z,1015.62
2017-09-25T07:38:23.934Z,1015.57
2017-09-25T07:39:23.924Z,1015.58
2017-09-25T07:40:23.914Z,1015.55
2017-09-25T07:41:23.889Z,1015.58
2017-09-25T07:42:23.880Z,1015.55
2017-09-25T07:43:23.861Z,1015.58
2017-09-25T07:44:23.845Z,1015.7
2017-09-25T07:45:23.831Z,1015.61
2017-09-25T07:46:23.823Z,1015.69
2017-09-25T07:47:23.802Z,1015.67
2017-09-25T07:48:23.790Z,1015.69
2017-09-25T07:49:23.771Z,1015.76
2017-09-25T07:50:23.760Z,1015.66
2017-09-25T07:51:23.748Z,1015.72
2017-09-25T07:52:23.742Z,1015.76
2017-09-25T07:53:23.740Z,1015.74
2017-09-25T07:54:23.710Z,1015.75
2017-09-25T07:55:23.700Z,1015.7
2017-09-25T07:56:23.693Z,1015.71
2017-09-25T07:57:23.680Z,1015.74
2017-09-25T07:58:23.670Z,1015.73
2017-09-25T07:59:23.659Z,1015.75
2017-09-25T08:00:23.651Z,1015.77
2017-09-25T08:01:23.645Z,1015.74
2017-09-25T08:02:23.643Z,1015.75
2017-09-25T08:03:23.642Z,1015.65
2017-09-25T08:04:23.620Z,1015.62
2017-09-25T08:05:23.610Z,1015.8
2017-09-25T08:06:23.604Z,1015.65
2017-09-25T08:07:23.598Z,1015.6
2017-09-25T08:08:23.587Z,1015.77
2017-09-25T08:09:23.584Z,1015.64
2017-09-25T08:10:23.586Z,1015.74
2017-09-25T08:11:23.567Z,1015.69
2017-09-25T08:12:23.565Z,1015.67
2017-09-25T08:13:23.551Z,1015.74
2017-09-25T08:14:23.539Z,1015.69
2017-09-25T08:15:23.530Z,1015.69
2017-09-25T08:16:23.529Z,1015.7
2017-09-25T08:17:23.526Z,1015.67
2017-09-25T08:18:23.510Z,1015.71
2017-09-25T08:19:23.498Z,1015.69
2017-09-25T08:20:23.494Z,1015.66
2017-09-25T08:21:23.480Z,1015.66
2017-09-25T08:22:23.471Z,1015.73
2017-09-25T08:23:23.461Z,1015.63
2017-09-25T08:24:23.449Z,1015.76
2017-09-25T08:25:23.440Z,1015.7
2017-09-25T08:26:23.429Z,1015.67
2017-09-25T08:27:23.417Z,1015.72
2017-09-25T08:28:23.410Z,1015.73
2017-09-25T08:29:23.400Z,1015.75
2017-09-25T08:30:23.390Z,1015.74
2017-09-25T08:31:23.431Z,1015.78
2017-09-25T08:32:23.468Z,1015.79
2017-09-25T08:33:23.400Z,1015.78
2017-09-25T08:34:23.354Z,1015.79
2017-09-25T08:35:23.353Z,1015.75
2017-09-25T08:36:23.340Z,1015.8
2017-09-25T08:37:23.334Z,1015.75
2017-09-25T08:38:23.330Z,1015.84
2017-09-25T08:39:23.329Z,1015.81
2017-09-25T08:40:23.316Z,1015.83
2017-09-25T08:41:23.310Z,1015.86
2017-09-25T08:42:23.303Z,1015.83
2017-09-25T08:43:23.302Z,1015.76
2017-09-25T08:44:23.289Z,1015.75
2017-09-25T08:45:23.289Z,1015.76
2017-09-25T08:46:23.276Z,1015.77
2017-09-25T08:47:23.269Z,1015.85
2017-09-25T08:48:23.269Z,1015.73
2017-09-25T08:49:23.263Z,1015.85
2017-09-25T08:50:23.254Z,1015.77
2017-09-25T08:51:23.240Z,1015.78
2017-09-25T08:52:23.232Z,1015.79
2017-09-25T08:53:23.227Z,1015.79
2017-09-25T08:54:23.219Z,1015.85
2017-09-25T08:55:23.210Z,1015.82
2017-09-25T08:56:23.200Z,1015.75
2017-09-25T08:57:23.186Z,1015.85
2017-09-25T08:58:23.179Z,1015.84
2017-09-25T08:59:23.169Z,1015.84
2017-09-25T09:00:23.171Z,1015.83
2017-09-25T09:01:23.158Z,1015.76
2017-09-25T09:02:23.149Z,1015.8
2017-09-25T09:03:23.140Z,1015.8
2017-09-25T09:04:23.129Z,1015.8
2017-09-25T09:05:23.125Z,1015.8
2017-09-25T09:06:23.119Z,1015.81
2017-09-25T09:07:23.111Z,1015.74
2017-09-25T09:08:23.110Z,1015.72
2017-09-25T09:09:23.108Z,1015.81
2017-09-25T09:10:23.090Z,1015.73
2017-09-25T09:11:23.089Z,1015.78
2017-09-25T09:12:23.084Z,1015.79
2017-09-25T09:13:23.071Z,1015.66
2017-09-25T09:14:23.085Z,1015.69
2017-09-25T09:15:23.063Z,1015.66
2017-09-25T09:16:23.058Z,1015.66
2017-09-25T09:17:23.052Z,1015.65
2017-09-25T09:18:23.052Z,1015.64
2017-09-25T09:19:23.034Z,1015.67
2017-09-25T09:20:23.031Z,1015.66
2017-09-25T09:21:23.022Z,1015.63
2017-09-25T09:22:23.019Z,1015.69
2017-09-25T09:23:23.011Z,1015.72
2017-09-25T09:24:22.999Z,1015.67
2017-09-25T09:25:23.001Z,1015.64
2017-09-25T09:26:22.996Z,1015.67
2017-09-25T09:27:22.983Z,1015.63
2017-09-25T09:28:22.982Z,1015.62
2017-09-25T09:29:23.009Z,1015.66
2017-09-25T09:30:22.968Z,1015.63
2017-09-25T09:31:22.957Z,1015.64
2017-09-25T09:32:22.949Z,1015.59
2017-09-25T09:33:22.954Z,1015.59
2017-09-25T09:34:22.942Z,1015.63
2017-09-25T09:35:22.942Z,1015.58
2017-09-25T09:36:22.921Z,1015.62
2017-09-25T09:37:22.963Z,1015.6
2017-09-25T09:38:22.905Z,1015.63
2017-09-25T09:39:22.901Z,1015.62
2017-09-25T09:40:22.898Z,1015.58
2017-09-25T09:41:22.881Z,1015.56
2017-09-25T09:42:22.871Z,1015.58
2017-09-25T09:43:22.862Z,1015.6
2017-09-25T09:44:22.850Z,1015.57
2017-09-25T09:45:22.851Z,1015.57
2017-09-25T09:46:22.838Z,1015.58
2017-09-25T09:47:22.833Z,1015.54
2017-09-25T09:48:22.821Z,1015.54
2017-09-25T09:49:22.802Z,1015.5
2017-09-25T09:50:22.791Z,1015.55
2017-09-25T09:51:22.780Z,1015.48
2017-09-25T09:52:22.780Z,1015.51
2017-09-25T09:53:22.761Z,1015.46
2017-09-25T09:54:22.748Z,1015.47
2017-09-25T09:55:22.744Z,1015.47
2017-09-25T09:56:22.731Z,1015.46
2017-09-25T09:57:22.725Z,1015.45
2017-09-25T09:58:22.707Z,1015.48
2017-09-25T09:59:22.701Z,1015.49
2017-09-25T10:00:22.681Z,1015.46
2017-09-25T10:01:22.675Z,1015.45
2017-09-25T10:02:22.661Z,1015.48
2017-09-25T10:03:22.649Z,1015.48
2017-09-25T10:04:22.643Z,1015.48
2017-09-25T10:05:22.628Z,1015.51
2017-09-25T10:06:22.617Z,1015.49
2017-09-25T10:07:22.612Z,1015.48
2017-09-25T10:08:22.591Z,1015.49
2017-09-25T10:09:22.581Z,1015.5
2017-09-25T10:10:22.590Z,1015.47
2017-09-25T10:11:22.561Z,1015.48
2017-09-25T10:12:22.550Z,1015.46
2017-09-25T10:13:22.540Z,1015.41
2017-09-25T10:14:22.530Z,1015.42
2017-09-25T10:15:22.522Z,1015.42
2017-09-25T10:16:22.552Z,1015.43
2017-09-25T10:17:22.490Z,1015.43
2017-09-25T10:18:22.509Z,1015.43
2017-09-25T10:19:22.471Z,1015.44
2017-09-25T10:20:22.461Z,1015.42
2017-09-25T10:21:22.464Z,1015.41
2017-09-25T10:22:22.541Z,1015.39
2017-09-25T10:23:22.425Z,1015.44
2017-09-25T10:24:22.415Z,1015.44
2017-09-25T10:25:22.412Z,1015.42
2017-09-25T10:26:22.400Z,1015.37
2017-09-25T10:27:22.382Z,1015.36
2017-09-25T10:28:22.574Z,1015.38
2017-09-25T10:29:22.362Z,1015.41
2017-09-25T10:30:22.366Z,1015.36
2017-09-25T10:31:22.340Z,1015.38
2017-09-25T10:32:22.382Z,1015.37
2017-09-25T10:33:22.327Z,1015.4
2017-09-25T10:34:22.305Z,1015.38
2017-09-25T10:35:22.301Z,1015.38
2017-09-25T10:36:22.293Z,1015.37
2017-09-25T10:37:22.280Z,1015.43
2017-09-25T10:38:22.498Z,1015.38
2017-09-25T10:39:22.252Z,1015.38
2017-09-25T10:40:22.242Z,1015.33
2017-09-25T10:41:22.229Z,1015.37
2017-09-25T10:42:22.220Z,1015.33
2017-09-25T10:43:22.211Z,1015.36
2017-09-25T10:44:22.198Z,1015.33
2017-09-25T10:45:22.183Z,1015.31
2017-09-25T10:46:22.183Z,1015.33
2017-09-25T10:47:22.167Z,1015.28
2017-09-25T10:48:22.154Z,1015.36
2017-09-25T10:49:22.149Z,1015.32
2017-09-25T10:50:22.130Z,1015.35
2017-09-25T10:51:22.120Z,1015.3
2017-09-25T10:52:22.099Z,1015.3
2017-09-25T10:53:22.119Z,1015.32
2017-09-25T10:54:22.081Z,1015.34
2017-09-25T10:55:22.066Z,1015.34
2017-09-25T10:56:22.048Z,1015.31
2017-09-25T10:57:22.038Z,1015.32
2017-09-25T10:58:22.030Z,1015.35
2017-09-25T10:59:22.012Z,1015.35
2017-09-25T11:00:21.999Z,1015.33
2017-09-25T11:01:21.989Z,1015.32
2017-09-25T11:02:21.976Z,1015.35
2017-09-25T11:03:21.971Z,1015.33
2017-09-25T11:04:21.958Z,1015.34
2017-09-25T11:05:21.940Z,1015.31
2017-09-25T11:06:21.926Z,1015.29
2017-09-25T11:07:21.916Z,1015.27
2017-09-25T11:08:21.908Z,1015.3
2017-09-25T11:09:21.890Z,1015.23
2017-09-25T11:10:21.879Z,1015.28
2017-09-25T11:11:21.869Z,1015.29
2017-09-25T11:12:21.853Z,1015.25
2017-09-25T11:13:21.840Z,1015.23
2017-09-25T11:14:21.823Z,1015.24
2017-09-25T11:15:21.812Z,1015.24
2017-09-25T11:16:21.799Z,1015.21
2017-09-25T11:17:21.788Z,1015.18
2017-09-25T11:18:21.776Z,1015.17
2017-09-25T11:19:21.762Z,1015.23
2017-09-25T11:20:21.751Z,1015.18
2017-09-25T11:21:21.740Z,1015.18
2017-09-25T11:22:21.726Z,1015.19
2017-09-25T11:23:21.714Z,1015.19
2017-09-25T11:24:21.700Z,1015.18
2017-09-25T11:25:21.683Z,1015.16
2017-09-25T11:26:21.671Z,1015.15
2017-09-25T11:27:21.659Z,1015.16
2017-09-25T11:28:21.655Z,1015.15
2017-09-25T11:29:21.630Z,1015.18
2017-09-25T11:30:21.620Z,1015.19
2017-09-25T11:31:21.609Z,1015.19
2017-09-25T11:32:21.588Z,1015.19
2017-09-25T11:33:21.579Z,1015.14
2017-09-25T11:34:21.569Z,1015.13
2017-09-25T11:35:21.552Z,1015.12
2017-09-25T11:36:21.539Z,1015.09
2017-09-25T11:37:21.532Z,1015.13
2017-09-25T11:38:21.512Z,1015.15
2017-09-25T11:39:21.493Z,1015.1
2017-09-25T11:40:21.483Z,1015.09
2017-09-25T11:41:21.477Z,1015.1
2017-09-25T11:42:21.464Z,1015.07
2017-09-25T11:43:21.451Z,1015.09
2017-09-25T11:44:21.429Z,1015.09
2017-09-25T11:45:21.419Z,1015.07
2017-09-25T11:46:21.403Z,1015.1
2017-09-25T11:47:21.391Z,1015.06
2017-09-25T11:48:21.378Z,1015.07
2017-09-25T11:49:21.370Z,1015.05
2017-09-25T11:50:21.352Z,1015.07
2017-09-25T11:51:21.337Z,1015.01
2017-09-25T11:52:21.332Z,1015.03
2017-09-25T11:53:21.309Z,1015.02
2017-09-25T11:54:21.295Z,1015.06
2017-09-25T11:55:21.284Z,1014.99
2017-09-25T11:56:21.271Z,1015.05
2017-09-25T11:57:21.318Z,1015.02
2017-09-25T11:58:21.249Z,1015.02
2017-09-25T11:59:21.239Z,1015.01
2017-09-25T12:00:21.218Z,1015.04
2017-09-25T12:01:21.212Z,1014.97
2017-09-25T12:02:21.196Z,1014.99
2017-09-25T12:03:21.180Z,1014.97
2017-09-25T12:04:21.172Z,1014.95
2017-09-25T12:05:21.160Z,1014.95
2017-09-25T12:06:21.139Z,1014.97
2017-09-25T12:07:21.129Z,1015